sensor_id;sensor_type;location;lat;lon;timestamp;temperature;humidity
21393;DHT22;10857;52.228;21.026;2022-09-12T00:00:51;11.90;99.90
21393;DHT22;10857;52.228;21.026;2022-09-12T00:03:18;11.90;99.90
21393;DHT22;10857;52.228;21.026;2022-09-12T00:05:46;11.90;99.90
21393;DHT22;10857;52.228;21.026;2022-09-12T00:08:13;11.90;99.90
21393;DHT22;10857;52.228;21.026;2022-09-12T00:10:42;11.90;99.90
21393;DHT22;10857;52.228;21.026;2022-09-12T00:13:10;11.80;99.90
21393;DHT22;10857;52.228;21.026;2022-09-12T00:15:41;11.80;99.90
21393;DHT22;10857;52.228;21.026;2022-09-12T00:18:12;11.80;99.90
21393;DHT22;10857;52.228;21.026;2022-09-12T00:20:46;11.80;99.90
21393;DHT22;10857;52.228;21.026;2022-09-12T00:23:13;11.70;99.90
21393;DHT22;10857;52.228;21.026;2022-09-12T00:25:45;11.70;99.90
21393;DHT22;10857;52.228;21.026;2022-09-12T00:28:16;11.70;99.90
21393;DHT22;10857;52.228;21.026;2022-09-12T00:30:47;11.70;99.90
21393;DHT22;10857;52.228;21.026;2022-09-12T00:33:15;11.70;99.90
21393;DHT22;10857;52.228;21.026;2022-09-12T00:35:50;11.70;99.90
21393;DHT22;10857;52.228;21.026;2022-09-12T00:38:19;11.70;99.90
21393;DHT22;10857;52.228;21.026;2022-09-12T00:40:47;11.60;99.90
21393;DHT22;10857;52.228;21.026;2022-09-12T00:43:39;11.60;99.90
21393;DHT22;10857;52.228;21.026;2022-09-12T00:46:27;11.60;99.90
21393;DHT22;10857;52.228;21.026;2022-09-12T00:51:59;11.60;99.90
21393;DHT22;10857;52.228;21.026;2022-09-12T00:54:34;11.60;99.90
21393;DHT22;10857;52.228;21.026;2022-09-12T00:57:05;11.50;99.90
21393;DHT22;10857;52.228;21.026;2022-09-12T00:59:45;11.50;99.90
21393;DHT22;10857;52.228;21.026;2022-09-12T01:02:13;11.60;99.90
21393;DHT22;10857;52.228;21.026;2022-09-12T01:04:41;11.50;99.90
21393;DHT22;10857;52.228;21.026;2022-09-12T01:07:09;11.60;99.90
21393;DHT22;10857;52.228;21.026;2022-09-12T01:09:37;11.60;99.90
21393;DHT22;10857;52.228;21.026;2022-09-12T01:12:05;11.50;99.90
21393;DHT22;10857;52.228;21.026;2022-09-12T01:14:32;11.50;99.90
21393;DHT22;10857;52.228;21.026;2022-09-12T01:17:00;11.50;99.90
21393;DHT22;10857;52.228;21.026;2022-09-12T01:33:41;11.50;99.90
21393;DHT22;10857;52.228;21.026;2022-09-12T01:36:33;11.50;99.90
21393;DHT22;10857;52.228;21.026;2022-09-12T01:39:13;11.50;99.90
21393;DHT22;10857;52.228;21.026;2022-09-12T01:41:53;11.50;99.90
21393;DHT22;10857;52.228;21.026;2022-09-12T01:44:47;11.50;99.90
21393;DHT22;10857;52.228;21.026;2022-09-12T01:47:28;11.50;99.90
21393;DHT22;10857;52.228;21.026;2022-09-12T01:49:59;11.50;99.90
21393;DHT22;10857;52.228;21.026;2022-09-12T01:52:48;11.40;99.90
21393;DHT22;10857;52.228;21.026;2022-09-12T01:55:35;11.40;99.90
21393;DHT22;10857;52.228;21.026;2022-09-12T02:00:33;11.40;99.90
21393;DHT22;10857;52.228;21.026;2022-09-12T02:03:07;11.40;99.90
21393;DHT22;10857;52.228;21.026;2022-09-12T02:05:44;11.40;99.90
21393;DHT22;10857;52.228;21.026;2022-09-12T02:08:19;11.40;99.90
21393;DHT22;10857;52.228;21.026;2022-09-12T02:11:07;11.40;99.90
21393;DHT22;10857;52.228;21.026;2022-09-12T02:14:00;11.40;99.90
21393;DHT22;10857;52.228;21.026;2022-09-12T02:16:44;11.40;99.90
21393;DHT22;10857;52.228;21.026;2022-09-12T02:19:16;11.40;99.90
21393;DHT22;10857;52.228;21.026;2022-09-12T02:22:03;11.40;99.90
21393;DHT22;10857;52.228;21.026;2022-09-12T02:24:38;11.40;99.90
21393;DHT22;10857;52.228;21.026;2022-09-12T02:27:21;11.40;99.90
21393;DHT22;10857;52.228;21.026;2022-09-12T02:29:49;11.40;99.90
21393;DHT22;10857;52.228;21.026;2022-09-12T02:32:24;11.40;99.90
21393;DHT22;10857;52.228;21.026;2022-09-12T02:35:00;11.40;99.90
21393;DHT22;10857;52.228;21.026;2022-09-12T02:37:44;11.40;99.90
21393;DHT22;10857;52.228;21.026;2022-09-12T02:40:15;11.50;99.90
21393;DHT22;10857;52.228;21.026;2022-09-12T02:42:43;11.40;99.90
21393;DHT22;10857;52.228;21.026;2022-09-12T02:45:10;11.50;99.90
21393;DHT22;10857;52.228;21.026;2022-09-12T02:47:47;11.50;99.90
21393;DHT22;10857;52.228;21.026;2022-09-12T02:50:17;11.50;99.90
21393;DHT22;10857;52.228;21.026;2022-09-12T02:52:44;11.50;99.90
21393;DHT22;10857;52.228;21.026;2022-09-12T02:55:13;11.50;99.90
21393;DHT22;10857;52.228;21.026;2022-09-12T02:57:40;11.50;99.90
21393;DHT22;10857;52.228;21.026;2022-09-12T03:00:07;11.50;99.90
21393;DHT22;10857;52.228;21.026;2022-09-12T03:03:00;11.50;99.90
21393;DHT22;10857;52.228;21.026;2022-09-12T03:05:47;11.50;99.90
21393;DHT22;10857;52.228;21.026;2022-09-12T03:08:48;11.50;99.90
21393;DHT22;10857;52.228;21.026;2022-09-12T03:11:49;11.50;99.90
21393;DHT22;10857;52.228;21.026;2022-09-12T03:14:32;11.50;99.90
21393;DHT22;10857;52.228;21.026;2022-09-12T03:20:16;11.40;99.90
21393;DHT22;10857;52.228;21.026;2022-09-12T03:22:56;11.50;99.90
21393;DHT22;10857;52.228;21.026;2022-09-12T03:25:29;11.50;99.90
21393;DHT22;10857;52.228;21.026;2022-09-12T03:28:02;11.50;99.90
21393;DHT22;10857;52.228;21.026;2022-09-12T03:30:42;11.50;99.90
21393;DHT22;10857;52.228;21.026;2022-09-12T03:33:11;11.50;99.90
21393;DHT22;10857;52.228;21.026;2022-09-12T03:35:38;11.50;99.90
21393;DHT22;10857;52.228;21.026;2022-09-12T03:38:05;11.40;99.90
21393;DHT22;10857;52.228;21.026;2022-09-12T03:40:34;11.40;99.90
21393;DHT22;10857;52.228;21.026;2022-09-12T03:43:03;11.30;99.90
21393;DHT22;10857;52.228;21.026;2022-09-12T03:45:30;11.30;99.90
21393;DHT22;10857;52.228;21.026;2022-09-12T03:47:57;11.30;99.90
21393;DHT22;10857;52.228;21.026;2022-09-12T03:50:24;11.20;99.90
21393;DHT22;10857;52.228;21.026;2022-09-12T03:52:51;11.10;99.90
21393;DHT22;10857;52.228;21.026;2022-09-12T03:55:18;11.10;99.90
21393;DHT22;10857;52.228;21.026;2022-09-12T03:57:45;11.00;99.90
21393;DHT22;10857;52.228;21.026;2022-09-12T04:00:12;11.00;99.90
21393;DHT22;10857;52.228;21.026;2022-09-12T04:02:45;11.00;99.90
21393;DHT22;10857;52.228;21.026;2022-09-12T04:05:12;10.90;99.90
21393;DHT22;10857;52.228;21.026;2022-09-12T04:07:39;10.90;99.90
21393;DHT22;10857;52.228;21.026;2022-09-12T04:10:06;10.90;99.90
21393;DHT22;10857;52.228;21.026;2022-09-12T04:12:32;10.90;99.90
21393;DHT22;10857;52.228;21.026;2022-09-12T04:15:01;10.80;99.90
21393;DHT22;10857;52.228;21.026;2022-09-12T04:17:27;10.80;99.90
21393;DHT22;10857;52.228;21.026;2022-09-12T04:19:54;10.80;99.90
21393;DHT22;10857;52.228;21.026;2022-09-12T04:22:21;10.70;99.90
21393;DHT22;10857;52.228;21.026;2022-09-12T04:24:48;10.70;99.90
21393;DHT22;10857;52.228;21.026;2022-09-12T04:27:15;10.70;99.90
21393;DHT22;10857;52.228;21.026;2022-09-12T04:29:42;10.70;99.90
21393;DHT22;10857;52.228;21.026;2022-09-12T04:32:09;10.70;99.90
21393;DHT22;10857;52.228;21.026;2022-09-12T04:34:36;10.70;99.90
21393;DHT22;10857;52.228;21.026;2022-09-12T04:37:03;10.70;99.90
21393;DHT22;10857;52.228;21.026;2022-09-12T04:39:29;10.70;99.90
21393;DHT22;10857;52.228;21.026;2022-09-12T04:41:56;10.70;99.90
21393;DHT22;10857;52.228;21.026;2022-09-12T04:44:23;10.70;99.90
21393;DHT22;10857;52.228;21.026;2022-09-12T04:46:50;10.70;99.90
21393;DHT22;10857;52.228;21.026;2022-09-12T04:49:18;10.70;99.90
21393;DHT22;10857;52.228;21.026;2022-09-12T04:51:45;10.70;99.90
21393;DHT22;10857;52.228;21.026;2022-09-12T04:54:15;10.60;99.90
21393;DHT22;10857;52.228;21.026;2022-09-12T04:56:44;10.60;99.90
21393;DHT22;10857;52.228;21.026;2022-09-12T04:59:12;10.60;99.90
21393;DHT22;10857;52.228;21.026;2022-09-12T05:01:40;10.50;99.90
21393;DHT22;10857;52.228;21.026;2022-09-12T05:04:09;10.60;99.90
21393;DHT22;10857;52.228;21.026;2022-09-12T05:06:36;10.50;99.90
21393;DHT22;10857;52.228;21.026;2022-09-12T05:09:05;10.50;99.90
21393;DHT22;10857;52.228;21.026;2022-09-12T05:11:35;10.50;99.90
21393;DHT22;10857;52.228;21.026;2022-09-12T05:14:23;10.60;99.90
21393;DHT22;10857;52.228;21.026;2022-09-12T05:16:50;10.50;99.90
21393;DHT22;10857;52.228;21.026;2022-09-12T05:19:17;10.50;99.90
21393;DHT22;10857;52.228;21.026;2022-09-12T05:21:45;10.50;99.90
21393;DHT22;10857;52.228;21.026;2022-09-12T05:24:12;10.50;99.90
21393;DHT22;10857;52.228;21.026;2022-09-12T05:26:41;10.50;99.90
21393;DHT22;10857;52.228;21.026;2022-09-12T05:29:08;10.50;99.90
21393;DHT22;10857;52.228;21.026;2022-09-12T05:31:36;10.50;99.90
21393;DHT22;10857;52.228;21.026;2022-09-12T05:34:03;10.50;99.90
21393;DHT22;10857;52.228;21.026;2022-09-12T05:36:32;10.50;99.90
21393;DHT22;10857;52.228;21.026;2022-09-12T05:38:59;10.60;99.90
21393;DHT22;10857;52.228;21.026;2022-09-12T05:41:29;10.60;99.90
21393;DHT22;10857;52.228;21.026;2022-09-12T05:43:59;10.60;99.90
21393;DHT22;10857;52.228;21.026;2022-09-12T05:46:28;10.60;99.90
21393;DHT22;10857;52.228;21.026;2022-09-12T05:49:00;10.60;99.90
21393;DHT22;10857;52.228;21.026;2022-09-12T05:51:31;10.60;99.90
21393;DHT22;10857;52.228;21.026;2022-09-12T05:53:59;10.60;99.90
21393;DHT22;10857;52.228;21.026;2022-09-12T05:56:30;10.60;99.90
21393;DHT22;10857;52.228;21.026;2022-09-12T05:59:06;10.60;99.90
21393;DHT22;10857;52.228;21.026;2022-09-12T06:01:34;10.60;99.90
21393;DHT22;10857;52.228;21.026;2022-09-12T06:04:03;10.60;99.90
21393;DHT22;10857;52.228;21.026;2022-09-12T06:11:00;10.70;99.90
21393;DHT22;10857;52.228;21.026;2022-09-12T06:13:30;10.70;99.90
21393;DHT22;10857;52.228;21.026;2022-09-12T06:16:03;10.70;99.90
21393;DHT22;10857;52.228;21.026;2022-09-12T06:18:31;10.70;99.90
21393;DHT22;10857;52.228;21.026;2022-09-12T06:21:03;10.70;99.90
21393;DHT22;10857;52.228;21.026;2022-09-12T06:23:30;10.70;99.90
21393;DHT22;10857;52.228;21.026;2022-09-12T06:25:57;10.70;99.90
21393;DHT22;10857;52.228;21.026;2022-09-12T06:28:24;10.80;99.90
21393;DHT22;10857;52.228;21.026;2022-09-12T06:30:51;10.80;99.90
21393;DHT22;10857;52.228;21.026;2022-09-12T06:33:22;10.80;99.90
21393;DHT22;10857;52.228;21.026;2022-09-12T06:35:48;10.90;99.90
21393;DHT22;10857;52.228;21.026;2022-09-12T06:38:15;10.90;99.90
21393;DHT22;10857;52.228;21.026;2022-09-12T06:40:43;10.80;99.90
21393;DHT22;10857;52.228;21.026;2022-09-12T06:43:11;10.80;99.90
21393;DHT22;10857;52.228;21.026;2022-09-12T06:45:39;10.80;99.90
21393;DHT22;10857;52.228;21.026;2022-09-12T06:48:13;10.90;99.90
21393;DHT22;10857;52.228;21.026;2022-09-12T06:50:40;10.90;99.90
21393;DHT22;10857;52.228;21.026;2022-09-12T06:53:07;10.90;99.90
21393;DHT22;10857;52.228;21.026;2022-09-12T06:55:35;11.00;99.90
21393;DHT22;10857;52.228;21.026;2022-09-12T06:58:03;10.90;99.90
21393;DHT22;10857;52.228;21.026;2022-09-12T07:00:31;10.90;99.90
21393;DHT22;10857;52.228;21.026;2022-09-12T07:02:58;10.90;99.90
21393;DHT22;10857;52.228;21.026;2022-09-12T07:05:24;10.90;99.90
21393;DHT22;10857;52.228;21.026;2022-09-12T07:07:51;10.90;99.90
21393;DHT22;10857;52.228;21.026;2022-09-12T07:10:18;11.00;99.90
21393;DHT22;10857;52.228;21.026;2022-09-12T07:12:48;11.00;99.90
21393;DHT22;10857;52.228;21.026;2022-09-12T07:15:15;10.90;99.90
21393;DHT22;10857;52.228;21.026;2022-09-12T07:17:42;10.90;99.90
21393;DHT22;10857;52.228;21.026;2022-09-12T07:20:09;11.00;99.90
21393;DHT22;10857;52.228;21.026;2022-09-12T07:22:35;11.00;99.90
21393;DHT22;10857;52.228;21.026;2022-09-12T07:25:03;10.90;99.90
21393;DHT22;10857;52.228;21.026;2022-09-12T07:27:30;11.00;99.90
21393;DHT22;10857;52.228;21.026;2022-09-12T07:29:57;11.00;99.90
21393;DHT22;10857;52.228;21.026;2022-09-12T07:32:24;11.10;99.90
21393;DHT22;10857;52.228;21.026;2022-09-12T07:34:51;11.10;99.90
21393;DHT22;10857;52.228;21.026;2022-09-12T07:37:18;11.10;99.90
21393;DHT22;10857;52.228;21.026;2022-09-12T07:39:45;11.10;99.90
21393;DHT22;10857;52.228;21.026;2022-09-12T07:42:12;11.10;99.90
21393;DHT22;10857;52.228;21.026;2022-09-12T07:44:40;11.20;99.90
21393;DHT22;10857;52.228;21.026;2022-09-12T07:47:07;11.30;99.90
21393;DHT22;10857;52.228;21.026;2022-09-12T07:49:33;11.30;99.90
21393;DHT22;10857;52.228;21.026;2022-09-12T07:52:01;11.40;99.90
21393;DHT22;10857;52.228;21.026;2022-09-12T07:54:28;11.50;99.90
21393;DHT22;10857;52.228;21.026;2022-09-12T07:56:55;11.50;99.90
21393;DHT22;10857;52.228;21.026;2022-09-12T07:59:22;11.50;99.90
21393;DHT22;10857;52.228;21.026;2022-09-12T08:02:12;11.40;99.90
21393;DHT22;10857;52.228;21.026;2022-09-12T08:04:43;11.50;99.90
21393;DHT22;10857;52.228;21.026;2022-09-12T08:07:10;11.50;99.90
21393;DHT22;10857;52.228;21.026;2022-09-12T08:09:37;11.50;99.90
21393;DHT22;10857;52.228;21.026;2022-09-12T08:12:04;11.50;99.90
21393;DHT22;10857;52.228;21.026;2022-09-12T08:14:31;11.50;99.90
21393;DHT22;10857;52.228;21.026;2022-09-12T08:16:58;11.60;99.90
21393;DHT22;10857;52.228;21.026;2022-09-12T08:19:25;11.50;99.90
21393;DHT22;10857;52.228;21.026;2022-09-12T08:21:52;11.60;99.90
21393;DHT22;10857;52.228;21.026;2022-09-12T08:24:19;11.60;99.90
21393;DHT22;10857;52.228;21.026;2022-09-12T08:26:45;11.70;99.90
21393;DHT22;10857;52.228;21.026;2022-09-12T08:29:12;11.70;99.90
21393;DHT22;10857;52.228;21.026;2022-09-12T08:31:39;11.60;99.90
21393;DHT22;10857;52.228;21.026;2022-09-12T08:34:08;11.70;99.90
21393;DHT22;10857;52.228;21.026;2022-09-12T08:36:35;11.80;99.90
21393;DHT22;10857;52.228;21.026;2022-09-12T08:39:05;11.80;99.90
21393;DHT22;10857;52.228;21.026;2022-09-12T08:41:39;11.90;99.90
21393;DHT22;10857;52.228;21.026;2022-09-12T08:44:30;11.90;99.90
21393;DHT22;10857;52.228;21.026;2022-09-12T08:55:01;12.00;99.90
21393;DHT22;10857;52.228;21.026;2022-09-12T08:57:28;12.10;99.90
21393;DHT22;10857;52.228;21.026;2022-09-12T08:59:55;12.00;99.90
21393;DHT22;10857;52.228;21.026;2022-09-12T09:02:49;12.10;99.90
21393;DHT22;10857;52.228;21.026;2022-09-12T09:10:56;12.10;99.90
21393;DHT22;10857;52.228;21.026;2022-09-12T09:13:44;12.10;99.90
21393;DHT22;10857;52.228;21.026;2022-09-12T09:16:41;12.20;99.90
21393;DHT22;10857;52.228;21.026;2022-09-12T09:19:20;12.20;99.90
21393;DHT22;10857;52.228;21.026;2022-09-12T09:21:58;12.20;99.90
21393;DHT22;10857;52.228;21.026;2022-09-12T09:27:22;12.30;99.90
21393;DHT22;10857;52.228;21.026;2022-09-12T09:30:15;12.40;99.90
21393;DHT22;10857;52.228;21.026;2022-09-12T09:32:55;12.40;99.90
21393;DHT22;10857;52.228;21.026;2022-09-12T09:38:21;12.40;99.90
21393;DHT22;10857;52.228;21.026;2022-09-12T09:43:45;12.60;99.90
21393;DHT22;10857;52.228;21.026;2022-09-12T09:46:13;12.60;99.90
21393;DHT22;10857;52.228;21.026;2022-09-12T09:48:46;12.70;99.90
21393;DHT22;10857;52.228;21.026;2022-09-12T09:51:24;12.60;99.90
21393;DHT22;10857;52.228;21.026;2022-09-12T09:56:30;12.70;99.90
21393;DHT22;10857;52.228;21.026;2022-09-12T10:04:40;12.60;99.90
21393;DHT22;10857;52.228;21.026;2022-09-12T10:07:18;12.70;99.90
21393;DHT22;10857;52.228;21.026;2022-09-12T10:12:39;12.80;99.90
21393;DHT22;10857;52.228;21.026;2022-09-12T10:15:24;12.90;99.90
21393;DHT22;10857;52.228;21.026;2022-09-12T10:17:55;12.90;99.90
21393;DHT22;10857;52.228;21.026;2022-09-12T10:20:33;13.00;99.90
21393;DHT22;10857;52.228;21.026;2022-09-12T10:23:35;13.10;99.90
21393;DHT22;10857;52.228;21.026;2022-09-12T10:26:09;13.00;99.90
21393;DHT22;10857;52.228;21.026;2022-09-12T10:28:44;13.00;99.90
21393;DHT22;10857;52.228;21.026;2022-09-12T10:31:16;12.90;99.90
21393;DHT22;10857;52.228;21.026;2022-09-12T10:33:49;12.90;99.90
21393;DHT22;10857;52.228;21.026;2022-09-12T10:36:19;13.00;99.90
21393;DHT22;10857;52.228;21.026;2022-09-12T10:38:58;13.00;99.90
21393;DHT22;10857;52.228;21.026;2022-09-12T10:41:34;13.00;99.90
21393;DHT22;10857;52.228;21.026;2022-09-12T10:44:07;13.10;99.90
21393;DHT22;10857;52.228;21.026;2022-09-12T10:46:35;13.00;99.90
21393;DHT22;10857;52.228;21.026;2022-09-12T10:49:27;13.10;99.90
21393;DHT22;10857;52.228;21.026;2022-09-12T10:51:55;13.00;99.90
21393;DHT22;10857;52.228;21.026;2022-09-12T10:54:26;13.00;99.90
21393;DHT22;10857;52.228;21.026;2022-09-12T10:59:31;13.00;99.90
21393;DHT22;10857;52.228;21.026;2022-09-12T11:05:17;13.00;99.90
21393;DHT22;10857;52.228;21.026;2022-09-12T11:08:10;13.00;99.90
21393;DHT22;10857;52.228;21.026;2022-09-12T11:13:30;13.00;99.90
21393;DHT22;10857;52.228;21.026;2022-09-12T11:21:18;13.20;99.90
21393;DHT22;10857;52.228;21.026;2022-09-12T11:24:28;13.20;99.90
21393;DHT22;10857;52.228;21.026;2022-09-12T11:27:21;13.30;99.90
21393;DHT22;10857;52.228;21.026;2022-09-12T11:30:10;13.40;99.90
21393;DHT22;10857;52.228;21.026;2022-09-12T11:35:29;13.40;99.90
21393;DHT22;10857;52.228;21.026;2022-09-12T11:46:20;13.60;99.90
21393;DHT22;10857;52.228;21.026;2022-09-12T11:54:59;13.60;99.90
21393;DHT22;10857;52.228;21.026;2022-09-12T12:00:19;13.70;99.90
21393;DHT22;10857;52.228;21.026;2022-09-12T12:05:58;13.70;99.90
21393;DHT22;10857;52.228;21.026;2022-09-12T12:08:29;13.70;99.90
21393;DHT22;10857;52.228;21.026;2022-09-12T12:11:01;13.80;99.90
21393;DHT22;10857;52.228;21.026;2022-09-12T12:13:36;13.80;99.90
21393;DHT22;10857;52.228;21.026;2022-09-12T12:16:11;13.80;99.90
21393;DHT22;10857;52.228;21.026;2022-09-12T12:18:41;13.80;99.90
21393;DHT22;10857;52.228;21.026;2022-09-12T12:24:24;13.90;99.90
21393;DHT22;10857;52.228;21.026;2022-09-12T12:27:21;13.80;99.90
21393;DHT22;10857;52.228;21.026;2022-09-12T12:29:49;13.80;99.90
21393;DHT22;10857;52.228;21.026;2022-09-12T12:34:44;13.80;99.90
21393;DHT22;10857;52.228;21.026;2022-09-12T12:45:02;14.00;99.90
21393;DHT22;10857;52.228;21.026;2022-09-12T12:47:44;14.00;99.90
21393;DHT22;10857;52.228;21.026;2022-09-12T12:52:53;14.00;99.90
21393;DHT22;10857;52.228;21.026;2022-09-12T12:55:37;14.00;99.90
21393;DHT22;10857;52.228;21.026;2022-09-12T12:58:06;14.00;99.90
21393;DHT22;10857;52.228;21.026;2022-09-12T13:00:38;14.00;99.90
21393;DHT22;10857;52.228;21.026;2022-09-12T13:05:46;14.00;99.90
21393;DHT22;10857;52.228;21.026;2022-09-12T13:10:53;14.10;99.90
21393;DHT22;10857;52.228;21.026;2022-09-12T13:13:30;14.10;99.90
21393;DHT22;10857;52.228;21.026;2022-09-12T13:15:58;14.10;99.90
21393;DHT22;10857;52.228;21.026;2022-09-12T13:18:28;14.10;99.90
21393;DHT22;10857;52.228;21.026;2022-09-12T13:21:14;14.10;99.90
21393;DHT22;10857;52.228;21.026;2022-09-12T13:23:42;14.20;99.90
21393;DHT22;10857;52.228;21.026;2022-09-12T13:26:21;14.10;99.90
21393;DHT22;10857;52.228;21.026;2022-09-12T13:28:48;14.20;99.90
21393;DHT22;10857;52.228;21.026;2022-09-12T13:31:24;14.20;99.90
21393;DHT22;10857;52.228;21.026;2022-09-12T13:33:58;14.30;99.90
21393;DHT22;10857;52.228;21.026;2022-09-12T13:39:27;14.20;99.90
21393;DHT22;10857;52.228;21.026;2022-09-12T13:44:55;14.30;99.90
21393;DHT22;10857;52.228;21.026;2022-09-12T13:47:37;14.30;99.90
21393;DHT22;10857;52.228;21.026;2022-09-12T13:50:07;14.40;99.90
21393;DHT22;10857;52.228;21.026;2022-09-12T13:52:49;14.40;99.90
21393;DHT22;10857;52.228;21.026;2022-09-12T13:55:35;14.40;99.90
21393;DHT22;10857;52.228;21.026;2022-09-12T13:58:24;14.40;99.90
21393;DHT22;10857;52.228;21.026;2022-09-12T14:01:21;14.40;99.90
21393;DHT22;10857;52.228;21.026;2022-09-12T14:03:51;14.40;99.90
21393;DHT22;10857;52.228;21.026;2022-09-12T14:06:47;14.40;99.90
21393;DHT22;10857;52.228;21.026;2022-09-12T14:09:22;14.40;99.90
21393;DHT22;10857;52.228;21.026;2022-09-12T14:11:52;14.50;99.90
21393;DHT22;10857;52.228;21.026;2022-09-12T14:14:32;14.60;99.90
21393;DHT22;10857;52.228;21.026;2022-09-12T14:17:24;14.70;99.90
21393;DHT22;10857;52.228;21.026;2022-09-12T14:19:56;14.80;99.90
21393;DHT22;10857;52.228;21.026;2022-09-12T14:22:28;14.80;99.90
21393;DHT22;10857;52.228;21.026;2022-09-12T14:24:58;14.80;99.90
21393;DHT22;10857;52.228;21.026;2022-09-12T14:27:51;14.90;99.90
21393;DHT22;10857;52.228;21.026;2022-09-12T14:30:30;15.00;99.90
21393;DHT22;10857;52.228;21.026;2022-09-12T14:33:16;15.00;99.90
21393;DHT22;10857;52.228;21.026;2022-09-12T14:35:47;15.00;99.90
21393;DHT22;10857;52.228;21.026;2022-09-12T14:40:43;14.80;99.90
21393;DHT22;10857;52.228;21.026;2022-09-12T14:43:33;14.80;99.90
21393;DHT22;10857;52.228;21.026;2022-09-12T14:46:04;14.90;99.90
21393;DHT22;10857;52.228;21.026;2022-09-12T14:48:51;14.90;99.90
21393;DHT22;10857;52.228;21.026;2022-09-12T14:51:30;14.90;99.90
21393;DHT22;10857;52.228;21.026;2022-09-12T14:53:57;14.90;99.90
21393;DHT22;10857;52.228;21.026;2022-09-12T14:56:43;14.90;99.90
21393;DHT22;10857;52.228;21.026;2022-09-12T14:59:37;14.90;99.90
21393;DHT22;10857;52.228;21.026;2022-09-12T15:07:44;14.90;99.90
21393;DHT22;10857;52.228;21.026;2022-09-12T15:10:38;15.00;99.90
21393;DHT22;10857;52.228;21.026;2022-09-12T15:13:15;15.00;99.90
21393;DHT22;10857;52.228;21.026;2022-09-12T15:15:53;15.00;99.90
21393;DHT22;10857;52.228;21.026;2022-09-12T15:18:22;15.00;99.90
21393;DHT22;10857;52.228;21.026;2022-09-12T15:20:52;15.00;99.90
21393;DHT22;10857;52.228;21.026;2022-09-12T15:23:28;15.00;99.90
21393;DHT22;10857;52.228;21.026;2022-09-12T15:25:55;15.00;99.90
21393;DHT22;10857;52.228;21.026;2022-09-12T15:28:24;15.00;99.90
21393;DHT22;10857;52.228;21.026;2022-09-12T15:30:54;15.00;99.90
21393;DHT22;10857;52.228;21.026;2022-09-12T15:33:23;15.00;99.90
21393;DHT22;10857;52.228;21.026;2022-09-12T15:35:51;15.00;99.90
21393;DHT22;10857;52.228;21.026;2022-09-12T15:38:19;15.00;99.90
21393;DHT22;10857;52.228;21.026;2022-09-12T15:40:52;14.90;99.90
21393;DHT22;10857;52.228;21.026;2022-09-12T15:43:20;14.90;99.90
21393;DHT22;10857;52.228;21.026;2022-09-12T15:45:48;14.90;99.90
21393;DHT22;10857;52.228;21.026;2022-09-12T15:48:17;14.90;99.90
21393;DHT22;10857;52.228;21.026;2022-09-12T15:50:44;14.90;99.90
21393;DHT22;10857;52.228;21.026;2022-09-12T15:53:13;14.80;99.90
21393;DHT22;10857;52.228;21.026;2022-09-12T15:55:42;14.80;99.90
21393;DHT22;10857;52.228;21.026;2022-09-12T15:58:09;14.80;99.90
21393;DHT22;10857;52.228;21.026;2022-09-12T16:00:36;14.70;99.90
21393;DHT22;10857;52.228;21.026;2022-09-12T16:03:05;14.70;99.90
21393;DHT22;10857;52.228;21.026;2022-09-12T16:05:32;14.70;99.90
21393;DHT22;10857;52.228;21.026;2022-09-12T16:08:00;14.70;99.90
21393;DHT22;10857;52.228;21.026;2022-09-12T16:10:28;14.70;99.90
21393;DHT22;10857;52.228;21.026;2022-09-12T16:12:56;14.60;99.90
21393;DHT22;10857;52.228;21.026;2022-09-12T16:15:24;14.60;99.90
21393;DHT22;10857;52.228;21.026;2022-09-12T16:17:51;14.60;99.90
21393;DHT22;10857;52.228;21.026;2022-09-12T16:20:19;14.50;99.90
21393;DHT22;10857;52.228;21.026;2022-09-12T16:22:47;14.50;99.90
21393;DHT22;10857;52.228;21.026;2022-09-12T16:25:16;14.50;99.90
21393;DHT22;10857;52.228;21.026;2022-09-12T16:27:44;14.50;99.90
21393;DHT22;10857;52.228;21.026;2022-09-12T16:30:12;14.50;99.90
21393;DHT22;10857;52.228;21.026;2022-09-12T16:32:42;14.50;99.90
21393;DHT22;10857;52.228;21.026;2022-09-12T16:35:09;14.40;99.90
21393;DHT22;10857;52.228;21.026;2022-09-12T16:37:36;14.40;99.90
21393;DHT22;10857;52.228;21.026;2022-09-12T16:40:05;14.40;99.90
21393;DHT22;10857;52.228;21.026;2022-09-12T16:42:33;14.40;99.90
21393;DHT22;10857;52.228;21.026;2022-09-12T16:45:00;14.50;99.90
21393;DHT22;10857;52.228;21.026;2022-09-12T16:47:28;14.40;99.90
21393;DHT22;10857;52.228;21.026;2022-09-12T16:49:57;14.40;99.90
21393;DHT22;10857;52.228;21.026;2022-09-12T16:52:25;14.40;99.90
21393;DHT22;10857;52.228;21.026;2022-09-12T16:54:52;14.40;99.90
21393;DHT22;10857;52.228;21.026;2022-09-12T16:57:19;14.40;99.90
21393;DHT22;10857;52.228;21.026;2022-09-12T16:59:46;14.40;99.90
21393;DHT22;10857;52.228;21.026;2022-09-12T17:02:13;14.30;99.90
21393;DHT22;10857;52.228;21.026;2022-09-12T17:04:40;14.30;99.90
21393;DHT22;10857;52.228;21.026;2022-09-12T17:07:07;14.30;99.90
21393;DHT22;10857;52.228;21.026;2022-09-12T17:09:34;14.30;99.90
21393;DHT22;10857;52.228;21.026;2022-09-12T17:12:02;14.30;99.90
21393;DHT22;10857;52.228;21.026;2022-09-12T17:14:29;14.40;99.90
21393;DHT22;10857;52.228;21.026;2022-09-12T17:16:56;14.30;99.90
21393;DHT22;10857;52.228;21.026;2022-09-12T17:19:25;14.30;99.90
21393;DHT22;10857;52.228;21.026;2022-09-12T17:21:54;14.30;99.90
21393;DHT22;10857;52.228;21.026;2022-09-12T17:24:21;14.30;99.90
21393;DHT22;10857;52.228;21.026;2022-09-12T17:26:49;14.30;99.90
21393;DHT22;10857;52.228;21.026;2022-09-12T17:29:16;14.20;99.90
21393;DHT22;10857;52.228;21.026;2022-09-12T17:31:44;14.20;99.90
21393;DHT22;10857;52.228;21.026;2022-09-12T17:34:12;14.20;99.90
21393;DHT22;10857;52.228;21.026;2022-09-12T17:36:44;14.20;99.90
21393;DHT22;10857;52.228;21.026;2022-09-12T17:39:12;14.20;99.90
21393;DHT22;10857;52.228;21.026;2022-09-12T17:41:40;14.20;99.90
21393;DHT22;10857;52.228;21.026;2022-09-12T17:44:15;14.20;99.90
21393;DHT22;10857;52.228;21.026;2022-09-12T17:46:42;14.20;99.90
21393;DHT22;10857;52.228;21.026;2022-09-12T17:49:13;14.30;99.90
21393;DHT22;10857;52.228;21.026;2022-09-12T17:51:41;14.30;99.90
21393;DHT22;10857;52.228;21.026;2022-09-12T17:54:11;14.30;99.90
21393;DHT22;10857;52.228;21.026;2022-09-12T17:56:40;14.30;99.90
21393;DHT22;10857;52.228;21.026;2022-09-12T17:59:13;14.30;99.90